Time;durP1;ratioP1;P1;durP2;ratioP2;P2;SDS_P1;SDS_P2;PMS_P1;PMS_P2;Temp;Humidity;BMP_temperature;BMP_pressure;BME280_temperature;BME280_humidity;BME280_pressure;Samples;Min_cycle;Max_cycle;Signal;HPM_P1;HPM_P2
2021/05/24 00:02:11;;;;;;;2.70;1.60;;;11.20;85.10;;;;;;5026233;28;20100;-68
2021/05/24 00:04:37;;;;;;;4.50;2.28;;;11.20;84.10;;;;;;5027675;28;20041;-69
2021/05/24 00:07:03;;;;;;;4.53;1.80;;;11.20;85.50;;;;;;5027853;28;20121;-68
2021/05/24 00:09:29;;;;;;;4.63;1.85;;;11.30;84.90;;;;;;5028337;28;20033;-68
2021/05/24 00:11:55;;;;;;;5.82;2.05;;;11.20;85.00;;;;;;5028726;28;20403;-68
2021/05/24 00:14:21;;;;;;;3.45;1.70;;;11.30;84.30;;;;;;5023430;28;20108;-68
2021/05/24 00:16:47;;;;;;;6.78;2.20;;;11.20;84.50;;;;;;5028660;28;20117;-69
2021/05/24 00:19:13;;;;;;;3.00;1.90;;;11.30;84.30;;;;;;5027106;28;20041;-68
2021/05/24 00:21:39;;;;;;;2.65;1.67;;;11.30;84.20;;;;;;5027708;28;20037;-68
2021/05/24 00:24:05;;;;;;;2.22;1.60;;;11.30;84.90;;;;;;5028297;28;20104;-68
2021/05/24 00:26:31;;;;;;;3.47;2.53;;;11.30;84.50;;;;;;5028021;28;20049;-69
2021/05/24 00:28:56;;;;;;;4.63;1.70;;;11.30;84.90;;;;;;5027857;28;20198;-68
2021/05/24 00:31:22;;;;;;;5.88;1.90;;;11.30;84.20;;;;;;5027864;28;21657;-68
2021/05/24 00:33:48;;;;;;;3.33;2.20;;;11.30;84.10;;;;;;5026498;28;20038;-69
2021/05/24 00:36:14;;;;;;;2.95;1.70;;;11.30;84.60;;;;;;5028825;28;20415;-68
2021/05/24 00:38:39;;;;;;;4.60;2.20;;;11.30;85.40;;;;;;5018218;28;20362;-69
2021/05/24 00:41:05;;;;;;;3.28;2.13;;;11.30;84.70;;;;;;5019647;28;20044;-68
2021/05/24 00:43:31;;;;;;;5.20;2.10;;;11.30;85.80;;;;;;5026163;28;20356;-68
2021/05/24 00:45:56;;;;;;;2.88;2.05;;;11.30;86.40;;;;;;5027148;28;20037;-68
2021/05/24 00:48:23;;;;;;;3.80;2.25;;;11.30;85.70;;;;;;5031521;28;20037;-69
2021/05/24 00:50:48;;;;;;;4.43;2.40;;;11.30;86.30;;;;;;5030202;28;20064;-69
2021/05/24 00:53:14;;;;;;;3.45;1.92;;;11.20;87.20;;;;;;5031335;28;20048;-69
2021/05/24 00:55:40;;;;;;;4.72;2.55;;;11.30;87.00;;;;;;5026732;28;20029;-69
2021/05/24 00:58:06;;;;;;;4.35;2.67;;;11.20;88.20;;;;;;5029955;28;20037;-69
2021/05/24 01:00:48;;;;;;;6.57;2.85;;;11.20;87.20;;;;;;5030560;28;20038;-69
2021/05/24 01:03:14;;;;;;;3.97;2.35;;;11.20;90.70;;;;;;5018863;28;20577;-69
2021/05/24 01:05:43;;;;;;;6.25;3.58;;;11.10;90.30;;;;;;5031040;28;20030;-69
2021/05/24 01:08:11;;;;;;;5.32;2.95;;;11.10;91.10;;;;;;5030710;28;20041;-69
2021/05/24 01:10:37;;;;;;;5.18;3.60;;;11.00;90.90;;;;;;5030303;28;20706;-69
2021/05/24 01:13:06;;;;;;;4.72;2.95;;;10.90;91.40;;;;;;5020843;28;20045;-69
2021/05/24 01:15:32;;;;;;;4.95;2.90;;;10.80;91.20;;;;;;5012265;28;20479;-71
2021/05/24 01:17:59;;;;;;;2.65;2.45;;;10.80;91.70;;;;;;5028058;28;20069;-70
2021/05/24 01:20:28;;;;;;;5.25;2.90;;;10.70;91.10;;;;;;5029015;28;20045;-70
2021/05/24 01:23:14;;;;;;;5.35;2.60;;;10.60;91.90;;;;;;5030315;28;20056;-69
2021/05/24 01:25:48;;;;;;;4.28;2.78;;;10.60;92.10;;;;;;5028949;28;20369;-69
2021/05/24 01:28:16;;;;;;;3.80;2.75;;;10.50;91.70;;;;;;5028253;28;20060;-70
2021/05/24 01:30:43;;;;;;;5.80;2.75;;;10.50;91.80;;;;;;5021051;28;20040;-70
2021/05/24 01:33:09;;;;;;;3.42;2.25;;;10.50;92.20;;;;;;5029112;28;20091;-70
2021/05/24 01:35:39;;;;;;;5.03;2.80;;;10.50;91.20;;;;;;5030582;28;20048;-70
2021/05/24 01:38:07;;;;;;;5.60;2.67;;;10.50;91.90;;;;;;5029250;28;20545;-69
2021/05/24 01:40:33;;;;;;;5.07;2.53;;;10.50;92.20;;;;;;5029725;28;20072;-70
2021/05/24 01:43:00;;;;;;;4.88;2.80;;;10.50;92.40;;;;;;5030860;28;20029;-69
2021/05/24 01:45:27;;;;;;;4.60;2.53;;;10.40;92.30;;;;;;5029272;28;20036;-70
2021/05/24 01:47:54;;;;;;;6.40;2.63;;;10.40;92.20;;;;;;5027590;28;20045;-70
2021/05/24 01:50:21;;;;;;;4.90;2.70;;;10.40;92.30;;;;;;5030925;28;20476;-68
2021/05/24 01:52:47;;;;;;;6.75;2.90;;;10.40;91.90;;;;;;5029742;28;20036;-68
2021/05/24 01:55:14;;;;;;;4.68;2.90;;;10.40;92.90;;;;;;5028681;28;20041;-68
2021/05/24 01:57:40;;;;;;;4.38;2.80;;;10.40;93.00;;;;;;5030323;28;20068;-68
2021/05/24 02:00:10;;;;;;;3.50;2.38;;;10.40;92.50;;;;;;5029149;28;20041;-68
2021/05/24 02:02:39;;;;;;;4.03;2.58;;;10.40;91.50;;;;;;5025184;28;20164;-68
2021/05/24 02:05:05;;;;;;;3.15;2.05;;;10.50;92.50;;;;;;5029741;28;20120;-68
2021/05/24 02:07:31;;;;;;;5.43;2.50;;;10.50;91.10;;;;;;5029889;28;20530;-69
2021/05/24 02:09:57;;;;;;;3.95;2.75;;;10.60;91.70;;;;;;5029950;28;20045;-69
2021/05/24 02:12:23;;;;;;;4.13;3.22;;;10.60;91.30;;;;;;5030592;28;20048;-68
2021/05/24 02:14:51;;;;;;;4.60;2.70;;;10.60;91.50;;;;;;5030864;28;20113;-69
2021/05/24 02:17:16;;;;;;;3.25;2.20;;;10.70;91.00;;;;;;5029824;28;20037;-68
2021/05/24 02:19:42;;;;;;;3.38;2.05;;;10.70;90.40;;;;;;5027120;28;20486;-68
2021/05/24 02:22:08;;;;;;;5.00;2.70;;;10.70;90.50;;;;;;5030496;28;20063;-68
2021/05/24 02:24:33;;;;;;;2.88;2.05;;;10.70;91.40;;;;;;5029978;28;20041;-68
2021/05/24 02:26:59;;;;;;;7.65;2.78;;;10.70;90.80;;;;;;5028927;28;20041;-68
2021/05/24 02:29:24;;;;;;;2.88;2.40;;;10.70;91.40;;;;;;5028249;28;20068;-69
2021/05/24 02:31:50;;;;;;;3.25;2.60;;;10.70;91.50;;;;;;5029497;28;20422;-68
2021/05/24 02:34:16;;;;;;;5.15;2.95;;;10.70;92.20;;;;;;5028620;28;20041;-68
2021/05/24 02:36:42;;;;;;;5.47;2.60;;;10.70;92.40;;;;;;5026229;28;20056;-68
2021/05/24 02:39:08;;;;;;;5.45;3.15;;;10.60;91.70;;;;;;5029164;28;20045;-68
2021/05/24 02:41:38;;;;;;;4.40;2.90;;;10.60;92.40;;;;;;5030141;28;20041;-68
2021/05/24 02:44:07;;;;;;;4.40;3.35;;;10.60;91.90;;;;;;5029555;28;20051;-68
2021/05/24 02:46:33;;;;;;;4.38;3.45;;;10.50;93.00;;;;;;5027381;28;20034;-68
2021/05/24 02:48:59;;;;;;;6.32;3.30;;;10.40;93.00;;;;;;5030645;28;20041;-68
2021/05/24 02:51:25;;;;;;;5.28;3.42;;;10.40;93.40;;;;;;5027997;28;20143;-68
2021/05/24 02:53:51;;;;;;;4.25;3.50;;;10.30;93.90;;;;;;5015800;28;20471;-68
2021/05/24 02:56:17;;;;;;;8.40;3.83;;;10.30;94.00;;;;;;5028164;28;20064;-68
2021/05/24 02:58:43;;;;;;;3.97;3.25;;;10.20;93.50;;;;;;5028904;28;20052;-68
2021/05/24 03:01:08;;;;;;;4.65;3.15;;;10.20;93.90;;;;;;5028799;28;20041;-68
2021/05/24 03:03:34;;;;;;;6.65;3.55;;;10.20;93.80;;;;;;5028628;28;20040;-68
2021/05/24 03:06:02;;;;;;;4.47;3.10;;;10.10;93.90;;;;;;5028634;28;20136;-68
2021/05/24 03:08:28;;;;;;;6.88;3.17;;;10.20;93.00;;;;;;5027667;28;20033;-68
2021/05/24 03:10:53;;;;;;;3.92;3.20;;;10.10;93.70;;;;;;5024268;28;20060;-68
2021/05/24 03:13:19;;;;;;;4.78;3.10;;;10.20;93.80;;;;;;5029565;28;20056;-68
2021/05/24 03:15:44;;;;;;;4.63;3.25;;;10.20;93.80;;;;;;5028385;28;20092;-68
2021/05/24 03:18:10;;;;;;;3.42;2.78;;;10.10;93.80;;;;;;5028646;28;20525;-68
2021/05/24 03:20:36;;;;;;;3.38;3.08;;;10.20;93.00;;;;;;5028471;28;20038;-67
2021/05/24 03:23:01;;;;;;;3.85;3.00;;;10.20;93.30;;;;;;5027639;28;20048;-68
2021/05/24 03:25:27;;;;;;;3.33;2.80;;;10.10;93.80;;;;;;5024358;28;20049;-68
2021/05/24 03:27:53;;;;;;;6.28;3.03;;;10.10;92.10;;;;;;5024501;28;20050;-67
2021/05/24 03:30:19;;;;;;;4.57;2.97;;;10.10;93.50;;;;;;5027615;28;20033;-68
2021/05/24 03:32:45;;;;;;;4.55;2.88;;;10.10;92.50;;;;;;5026633;28;20041;-68
2021/05/24 03:35:11;;;;;;;2.92;2.53;;;10.10;92.80;;;;;;5028247;28;20045;-68
2021/05/24 03:37:37;;;;;;;3.97;2.75;;;10.10;92.50;;;;;;5027644;28;20041;-68
2021/05/24 03:40:05;;;;;;;3.70;2.85;;;10.10;93.20;;;;;;5027910;28;20033;-68
2021/05/24 03:42:31;;;;;;;4.57;2.90;;;10.10;93.50;;;;;;5025192;28;20507;-68
2021/05/24 03:44:58;;;;;;;2.97;2.05;;;10.10;93.60;;;;;;5027004;28;20041;-68
2021/05/24 03:47:23;;;;;;;3.53;2.90;;;10.10;93.50;;;;;;5028065;28;20367;-68
2021/05/24 03:49:49;;;;;;;5.93;2.80;;;10.10;93.60;;;;;;5026817;28;20033;-68
2021/05/24 03:52:17;;;;;;;3.88;2.30;;;10.10;93.60;;;;;;5027756;28;20041;-68
2021/05/24 03:54:43;;;;;;;3.47;2.22;;;10.10;93.50;;;;;;5029656;28;20514;-68
2021/05/24 03:57:10;;;;;;;5.07;2.70;;;10.10;92.80;;;;;;5027851;28;20033;-68
2021/05/24 03:59:36;;;;;;;4.72;1.98;;;10.20;93.70;;;;;;5026968;28;20073;-68
2021/05/24 04:02:02;;;;;;;3.95;2.50;;;10.20;92.90;;;;;;5029927;28;20038;-68
2021/05/24 04:04:28;;;;;;;7.32;2.35;;;10.20;93.30;;;;;;5025081;28;20040;-68
2021/05/24 04:06:56;;;;;;;4.30;2.15;;;10.20;93.10;;;;;;5029844;28;20046;-68
2021/05/24 04:09:22;;;;;;;4.57;2.20;;;10.20;93.00;;;;;;5029274;28;20041;-68
2021/05/24 04:11:47;;;;;;;2.33;2.00;;;10.30;92.50;;;;;;5029960;28;20063;-68
2021/05/24 04:14:13;;;;;;;2.33;1.90;;;10.30;93.00;;;;;;5028611;28;20479;-68
2021/05/24 04:16:39;;;;;;;2.30;1.85;;;10.30;93.20;;;;;;5023940;28;20037;-68
2021/05/24 04:19:09;;;;;;;3.13;2.33;;;10.30;93.00;;;;;;5027267;28;20041;-68
2021/05/24 04:21:35;;;;;;;3.25;1.90;;;10.30;93.30;;;;;;5032117;28;20029;-68
2021/05/24 04:24:01;;;;;;;4.00;2.10;;;10.30;92.70;;;;;;5033099;28;20510;-68
2021/05/24 04:26:26;;;;;;;6.18;2.00;;;10.40;92.70;;;;;;5033603;28;20546;-67
2021/05/24 04:28:52;;;;;;;2.47;1.77;;;10.40;92.90;;;;;;5033089;28;20038;-68
2021/05/24 04:31:18;;;;;;;3.33;2.03;;;10.40;92.30;;;;;;5033479;28;20071;-68
2021/05/24 04:33:43;;;;;;;3.25;1.70;;;10.40;92.50;;;;;;5030706;28;20128;-68
2021/05/24 04:36:09;;;;;;;2.72;1.70;;;10.40;93.20;;;;;;5031756;28;20030;-68
2021/05/24 04:38:35;;;;;;;5.03;1.58;;;10.40;93.00;;;;;;5031921;28;20034;-68
2021/05/24 04:41:00;;;;;;;3.40;1.65;;;10.40;93.40;;;;;;5033038;28;20048;-68
2021/05/24 04:43:31;;;;;;;3.35;1.75;;;10.50;93.20;;;;;;5027167;28;20044;-68
2021/05/24 04:45:57;;;;;;;3.50;1.90;;;10.50;93.00;;;;;;5013357;28;20049;-68
2021/05/24 04:48:23;;;;;;;4.45;1.80;;;10.50;92.60;;;;;;5021457;28;20140;-68
2021/05/24 04:50:48;;;;;;;2.47;1.70;;;10.60;92.00;;;;;;5031634;28;20042;-68
2021/05/24 04:53:15;;;;;;;3.97;2.05;;;10.60;92.50;;;;;;5030216;28;20097;-68
2021/05/24 04:55:40;;;;;;;4.40;1.75;;;10.60;93.10;;;;;;5032013;28;20049;-68
2021/05/24 04:58:06;;;;;;;4.57;1.70;;;10.60;92.80;;;;;;5031558;28;20045;-68
2021/05/24 05:00:33;;;;;;;4.93;1.90;;;10.60;92.80;;;;;;5032868;28;20379;-68
2021/05/24 05:03:00;;;;;;;4.70;1.50;;;10.70;92.90;;;;;;5032690;28;20038;-68
2021/05/24 05:05:25;;;;;;;3.33;1.70;;;10.70;92.90;;;;;;5032763;28;20048;-68
2021/05/24 05:07:51;;;;;;;3.95;1.63;;;10.70;92.70;;;;;;5029088;28;20037;-69
2021/05/24 05:10:17;;;;;;;2.28;1.50;;;10.80;92.20;;;;;;5032727;28;20079;-67
2021/05/24 05:12:43;;;;;;;3.88;1.60;;;10.80;92.50;;;;;;5032708;28;20033;-68
2021/05/24 05:15:09;;;;;;;2.22;1.50;;;10.80;92.40;;;;;;5027656;28;20496;-68
2021/05/24 05:17:34;;;;;;;2.15;1.50;;;10.80;93.00;;;;;;5032025;28;20049;-68
2021/05/24 05:20:00;;;;;;;4.45;1.50;;;10.90;92.70;;;;;;5029325;28;20034;-68
2021/05/24 05:22:26;;;;;;;2.80;1.55;;;10.90;92.00;;;;;;5029231;28;20037;-68
2021/05/24 05:24:51;;;;;;;3.00;1.73;;;10.90;92.50;;;;;;5032032;28;20092;-68
2021/05/24 05:27:17;;;;;;;3.17;1.70;;;10.90;92.20;;;;;;5032476;28;20045;-68
2021/05/24 05:29:43;;;;;;;5.50;1.60;;;11.00;92.30;;;;;;5032111;28;20069;-68
2021/05/24 05:32:09;;;;;;;3.47;1.83;;;11.00;92.80;;;;;;5031484;28;20065;-68
2021/05/24 05:34:35;;;;;;;4.07;1.75;;;11.00;92.20;;;;;;5032436;28;20087;-68
2021/05/24 05:37:00;;;;;;;3.38;1.60;;;11.00;92.80;;;;;;5031754;28;20045;-69
2021/05/24 05:39:26;;;;;;;3.15;1.35;;;11.10;92.20;;;;;;5037167;23;20049;-65
2021/05/24 05:41:52;;;;;;;4.32;1.70;;;11.10;92.50;;;;;;5051263;28;20466;-65
2021/05/24 05:44:18;;;;;;;3.53;1.50;;;11.20;92.40;;;;;;5049502;28;20029;-65
2021/05/24 05:46:43;;;;;;;1.95;1.50;;;11.20;92.30;;;;;;5052796;28;20043;-65
2021/05/24 05:49:09;;;;;;;3.80;1.23;;;11.30;92.60;;;;;;5046999;28;20505;-65
2021/05/24 05:51:35;;;;;;;2.10;1.40;;;11.40;92.10;;;;;;5043221;28;20112;-65
2021/05/24 05:54:01;;;;;;;3.50;1.45;;;11.50;91.50;;;;;;5053190;28;20045;-65
2021/05/24 05:56:27;;;;;;;2.47;1.50;;;11.60;92.10;;;;;;5038815;28;20041;-65
2021/05/24 05:58:53;;;;;;;2.45;1.50;;;11.60;92.50;;;;;;5031791;28;20076;-65
2021/05/24 06:01:18;;;;;;;1.73;1.30;;;11.70;92.10;;;;;;5043376;28;20061;-65
2021/05/24 06:03:44;;;;;;;3.58;1.67;;;11.80;91.80;;;;;;5047908;28;20090;-65
2021/05/24 06:06:12;;;;;;;3.78;1.42;;;11.90;92.30;;;;;;5043591;28;20044;-65
2021/05/24 06:08:37;;;;;;;2.22;1.40;;;11.90;91.80;;;;;;5034369;28;20426;-65
2021/05/24 06:11:03;;;;;;;3.28;1.83;;;11.90;91.10;;;;;;5033833;28;20072;-65
2021/05/24 06:13:29;;;;;;;3.03;1.40;;;12.00;91.60;;;;;;5045033;28;20081;-65
2021/05/24 06:15:55;;;;;;;5.90;1.63;;;12.10;90.60;;;;;;5033732;28;20072;-65
2021/05/24 06:18:21;;;;;;;2.75;1.40;;;12.10;89.20;;;;;;5032987;28;20047;-65
2021/05/24 06:20:47;;;;;;;3.08;1.73;;;12.20;91.10;;;;;;5049339;28;20140;-65
2021/05/24 06:23:16;;;;;;;3.08;1.55;;;12.40;90.40;;;;;;5034482;28;20200;-65
2021/05/24 06:25:44;;;;;;;3.58;1.73;;;12.50;91.20;;;;;;5051202;28;20398;-65
2021/05/24 06:28:10;;;;;;;3.95;1.60;;;12.60;90.70;;;;;;5039531;28;20284;-65
2021/05/24 06:30:36;;;;;;;4.15;1.65;;;12.70;90.40;;;;;;5029738;28;20108;-65
2021/05/24 06:33:02;;;;;;;1.80;1.20;;;12.90;90.50;;;;;;5050298;28;20084;-66
2021/05/24 06:35:28;;;;;;;2.85;1.20;;;13.00;89.80;;;;;;5051952;28;20061;-65
2021/05/24 06:37:53;;;;;;;2.90;1.27;;;13.20;88.50;;;;;;5049520;28;20128;-65
2021/05/24 06:40:19;;;;;;;3.40;1.10;;;13.30;88.70;;;;;;5033694;28;20041;-66
2021/05/24 06:42:45;;;;;;;2.67;1.20;;;13.50;86.70;;;;;;5041615;28;20041;-66
2021/05/24 06:45:12;;;;;;;2.78;0.93;;;13.60;83.60;;;;;;5030061;28;20422;-66
2021/05/24 06:47:38;;;;;;;3.22;0.98;;;13.80;86.80;;;;;;5048922;28;20029;-66
2021/05/24 06:50:05;;;;;;;3.03;1.10;;;14.00;85.10;;;;;;5036516;28;20565;-66
2021/05/24 06:52:32;;;;;;;3.65;1.20;;;14.20;81.60;;;;;;5029542;28;20072;-65
2021/05/24 06:54:58;;;;;;;2.72;1.27;;;14.30;82.90;;;;;;5040348;28;20087;-64
2021/05/24 06:57:24;;;;;;;2.10;1.17;;;14.50;82.20;;;;;;5051283;28;20033;-64
2021/05/24 06:59:50;;;;;;;2.72;1.05;;;14.60;81.20;;;;;;5050710;28;20112;-64
2021/05/24 07:02:16;;;;;;;2.00;1.00;;;14.80;79.50;;;;;;5045472;28;20398;-64
2021/05/24 07:04:46;;;;;;;1.60;0.98;;;15.00;79.30;;;;;;5042910;28;20110;-64
2021/05/24 07:07:11;;;;;;;2.83;1.00;;;15.30;77.20;;;;;;5050095;28;20044;-65
2021/05/24 07:09:37;;;;;;;4.00;1.20;;;15.50;75.90;;;;;;5050304;28;20033;-65
2021/05/24 07:12:04;;;;;;;4.50;1.15;;;15.50;75.60;;;;;;5050747;28;20067;-64
2021/05/24 07:14:30;;;;;;;4.50;1.10;;;15.50;76.10;;;;;;5051179;28;20036;-65
2021/05/24 07:16:55;;;;;;;3.17;1.05;;;15.60;76.70;;;;;;5032634;28;20103;-65
2021/05/24 07:19:21;;;;;;;1.80;1.00;;;15.80;76.40;;;;;;5049186;28;20041;-65
2021/05/24 07:21:47;;;;;;;2.40;1.02;;;16.30;76.70;;;;;;5021948;28;20449;-65
2021/05/24 07:24:13;;;;;;;1.83;0.70;;;16.80;75.80;;;;;;5032466;28;20506;-65
2021/05/24 07:26:39;;;;;;;6.32;1.20;;;17.50;71.40;;;;;;5050887;28;20510;-65
2021/05/24 07:29:05;;;;;;;2.20;0.70;;;17.90;70.90;;;;;;5045902;28;20068;-65
2021/05/24 07:31:30;;;;;;;2.20;1.02;;;18.30;70.20;;;;;;5050017;28;20067;-65
2021/05/24 07:33:56;;;;;;;3.17;0.90;;;18.50;67.70;;;;;;5050306;28;20371;-65
2021/05/24 07:36:22;;;;;;;1.90;0.70;;;18.80;64.50;;;;;;5050303;28;20044;-65
2021/05/24 07:38:48;;;;;;;2.67;1.05;;;18.90;65.80;;;;;;5050112;28;20132;-65
2021/05/24 07:41:15;;;;;;;3.38;1.27;;;18.80;65.10;;;;;;5050266;28;20063;-65
2021/05/24 07:43:41;;;;;;;2.05;1.08;;;18.90;65.20;;;;;;5050341;28;20041;-65
2021/05/24 07:46:06;;;;;;;3.70;1.40;;;18.70;65.20;;;;;;5044063;28;20041;-66
2021/05/24 07:48:32;;;;;;;2.40;1.08;;;18.40;65.00;;;;;;5030198;28;20060;-66
2021/05/24 07:50:57;;;;;;;1.95;1.10;;;18.10;65.50;;;;;;5042338;28;20528;-64
2021/05/24 07:53:23;;;;;;;3.20;1.25;;;17.70;66.80;;;;;;5049863;28;20041;-66
2021/05/24 07:55:49;;;;;;;2.35;0.90;;;17.60;65.70;;;;;;5050534;28;20044;-64
2021/05/24 07:58:15;;;;;;;2.88;0.93;;;17.50;67.50;;;;;;5036094;28;20041;-65
2021/05/24 08:00:40;;;;;;;3.65;0.90;;;17.40;69.50;;;;;;5035867;28;20067;-65
2021/05/24 08:03:06;;;;;;;3.50;0.88;;;17.40;69.10;;;;;;5048480;28;20037;-65
2021/05/24 08:05:32;;;;;;;2.40;1.05;;;17.10;70.00;;;;;;5053715;28;20127;-65
2021/05/24 08:07:57;;;;;;;3.50;1.30;;;17.10;69.30;;;;;;5053718;28;20431;-65
2021/05/24 08:10:23;;;;;;;1.77;1.25;;;17.00;70.40;;;;;;5051572;28;20037;-66
2021/05/24 08:12:49;;;;;;;2.60;0.80;;;16.90;70.30;;;;;;5043384;28;20120;-66
2021/05/24 08:15:19;;;;;;;3.17;1.10;;;16.80;69.70;;;;;;5035588;28;20041;-66
2021/05/24 08:17:45;;;;;;;3.45;1.10;;;16.70;69.70;;;;;;5035942;28;20048;-66
2021/05/24 08:20:14;;;;;;;3.95;1.20;;;16.60;71.80;;;;;;5049870;28;20037;-66
2021/05/24 08:22:40;;;;;;;2.38;1.02;;;16.50;70.80;;;;;;5053479;28;20824;-65
2021/05/24 08:25:07;;;;;;;4.72;1.00;;;16.50;71.00;;;;;;5053475;28;20041;-66
2021/05/24 08:27:33;;;;;;;2.60;1.00;;;16.50;69.10;;;;;;5053145;28;20086;-66
2021/05/24 08:29:58;;;;;;;4.20;1.05;;;16.60;70.80;;;;;;5034709;28;20049;-66
2021/05/24 08:32:24;;;;;;;3.38;1.15;;;16.60;71.40;;;;;;5053542;28;20090;-66
2021/05/24 08:34:50;;;;;;;1.80;0.90;;;16.80;71.30;;;;;;5053606;28;20037;-66
2021/05/24 08:37:15;;;;;;;4.25;1.00;;;16.90;70.20;;;;;;5049860;28;20032;-66
2021/05/24 08:39:43;;;;;;;4.32;1.13;;;17.00;69.30;;;;;;5053059;28;20076;-66
2021/05/24 08:42:09;;;;;;;2.67;1.05;;;17.10;69.50;;;;;;5053073;28;20049;-66
2021/05/24 08:44:37;;;;;;;1.77;0.90;;;17.30;69.20;;;;;;5034835;28;20051;-66
2021/05/24 08:47:03;;;;;;;4.03;1.20;;;17.30;66.80;;;;;;5035283;28;20056;-65
2021/05/24 08:49:30;;;;;;;2.60;1.02;;;17.30;67.00;;;;;;5051814;28;20037;-64
2021/05/24 08:51:57;;;;;;;3.65;0.90;;;17.30;66.50;;;;;;5052112;28;20041;-64
2021/05/24 08:54:23;;;;;;;2.38;0.90;;;17.20;65.50;;;;;;5034059;28;20041;-65
2021/05/24 08:56:50;;;;;;;4.35;1.27;;;17.10;68.80;;;;;;5052404;28;20053;-65
2021/05/24 08:59:15;;;;;;;1.63;1.13;;;16.60;71.30;;;;;;5052721;28;20127;-65
2021/05/24 09:01:41;;;;;;;1.77;1.40;;;16.30;70.30;;;;;;5035098;28;20080;-66
2021/05/24 09:04:07;;;;;;;1.75;1.15;;;16.10;77.50;;;;;;5052499;28;20496;-66
2021/05/24 09:06:38;;;;;;;4.30;1.30;;;16.00;72.70;;;;;;5051840;28;20044;-65
2021/05/24 09:09:12;;;;;;;3.05;1.20;;;15.90;77.00;;;;;;5046952;28;20376;-66
2021/05/24 09:11:38;;;;;;;1.75;0.90;;;15.90;77.10;;;;;;5049893;28;21472;-66
2021/05/24 09:14:21;;;;;;;1.90;1.00;;;15.90;76.50;;;;;;5052697;28;20037;-66
2021/05/24 09:16:56;;;;;;;2.17;1.10;;;16.00;75.80;;;;;;5050967;28;20041;-66
2021/05/24 09:19:24;;;;;;;2.45;1.05;;;16.20;74.30;;;;;;5042142;28;20037;-65
2021/05/24 09:21:58;;;;;;;2.00;0.90;;;16.20;75.00;;;;;;5046789;28;20537;-66
2021/05/24 09:24:28;;;;;;;1.33;0.60;;;16.20;74.80;;;;;;5035024;28;20494;-66
2021/05/24 09:26:57;;;;;;;3.55;1.02;;;16.20;77.20;;;;;;5042283;28;20044;-66
2021/05/24 09:29:23;;;;;;;2.58;0.98;;;16.10;76.10;;;;;;5049986;28;20044;-66
2021/05/24 09:32:09;;;;;;;1.63;0.80;;;16.10;72.30;;;;;;5050767;28;20033;-65
2021/05/24 09:34:36;;;;;;;2.10;1.40;;;15.80;74.80;;;;;;5049420;28;20095;-65
2021/05/24 09:37:02;;;;;;;1.35;0.90;;;15.60;74.30;;;;;;5050335;28;20032;-65
2021/05/24 09:39:32;;;;;;;1.58;0.98;;;15.40;74.00;;;;;;5048014;28;20056;-66
2021/05/24 09:42:03;;;;;;;2.20;1.13;;;15.30;76.70;;;;;;5051362;28;20037;-65
2021/05/24 09:44:32;;;;;;;2.55;0.95;;;15.10;76.40;;;;;;5052478;28;20044;-65
2021/05/24 09:46:58;;;;;;;3.00;1.25;;;14.90;76.50;;;;;;5050426;28;20033;-65
2021/05/24 09:49:28;;;;;;;1.60;1.00;;;14.90;75.90;;;;;;5046604;28;20174;-65
2021/05/24 09:51:55;;;;;;;7.10;1.10;;;14.70;77.30;;;;;;5033105;28;20037;-65
2021/05/24 09:54:23;;;;;;;2.95;1.08;;;14.50;80.00;;;;;;5049976;28;20091;-66
2021/05/24 09:56:49;;;;;;;2.00;1.10;;;14.50;79.30;;;;;;5022630;28;20032;-66
2021/05/24 09:59:23;;;;;;;1.35;1.08;;;14.30;79.50;;;;;;5026386;28;20060;-65
2021/05/24 10:01:54;;;;;;;2.70;0.90;;;14.20;80.80;;;;;;5047450;28;20041;-65
2021/05/24 10:04:24;;;;;;;1.85;1.00;;;14.10;78.30;;;;;;5020941;28;20032;-65
2021/05/24 10:06:51;;;;;;;2.10;0.95;;;14.10;78.50;;;;;;5049835;28;20048;-66
2021/05/24 10:09:18;;;;;;;4.20;1.20;;;14.00;79.90;;;;;;5048193;28;20159;-66
2021/05/24 10:11:50;;;;;;;1.70;1.02;;;14.00;78.00;;;;;;5031378;28;20041;-66
2021/05/24 10:14:24;;;;;;;5.38;1.20;;;14.00;78.50;;;;;;5051543;28;20549;-65
2021/05/24 10:16:55;;;;;;;3.28;1.10;;;13.90;81.00;;;;;;5051231;28;20149;-65
2021/05/24 10:19:21;;;;;;;1.73;1.30;;;13.90;81.40;;;;;;5050676;28;20060;-65
2021/05/24 10:21:48;;;;;;;2.83;1.20;;;13.90;83.10;;;;;;5051756;28;20053;-63
2021/05/24 10:24:15;;;;;;;1.88;1.17;;;14.00;81.60;;;;;;5049486;28;20032;-64
2021/05/24 10:26:42;;;;;;;2.53;1.60;;;14.00;82.10;;;;;;5031417;28;20037;-64
2021/05/24 10:29:10;;;;;;;2.28;1.30;;;14.00;83.80;;;;;;5041193;28;20037;-64
2021/05/24 10:31:36;;;;;;;2.63;1.25;;;14.10;85.00;;;;;;5043802;28;20068;-64
2021/05/24 10:34:17;;;;;;;3.33;1.20;;;14.10;83.90;;;;;;5044906;28;20471;-64
2021/05/24 10:36:45;;;;;;;3.20;1.27;;;14.10;83.30;;;;;;5047014;28;20057;-64
2021/05/24 10:39:13;;;;;;;2.13;1.50;;;14.10;86.20;;;;;;5050587;28;20053;-64
2021/05/24 10:42:00;;;;;;;2.97;1.65;;;14.20;81.50;;;;;;5045853;28;20037;-64
2021/05/24 10:44:40;;;;;;;1.65;1.38;;;14.40;85.20;;;;;;5032856;28;20041;-65
2021/05/24 10:47:15;;;;;;;2.05;1.20;;;14.60;82.90;;;;;;5013313;28;20124;-65
2021/05/24 10:50:04;;;;;;;2.95;1.63;;;14.90;84.20;;;;;;5026816;28;20033;-65
2021/05/24 10:52:35;;;;;;;3.33;1.55;;;15.20;81.70;;;;;;5019496;28;20033;-65
2021/05/24 10:55:21;;;;;;;2.55;1.30;;;15.40;80.00;;;;;;5044085;28;20372;-65
2021/05/24 10:57:58;;;;;;;2.17;1.23;;;15.50;80.10;;;;;;5020464;28;20115;-65
2021/05/24 11:00:24;;;;;;;2.40;1.40;;;15.60;80.20;;;;;;5041173;28;20041;-65
2021/05/24 11:02:55;;;;;;;3.08;1.80;;;15.70;79.70;;;;;;5050195;28;20501;-65
2021/05/24 11:05:31;;;;;;;3.20;1.67;;;15.60;80.30;;;;;;5027489;28;20072;-65
2021/05/24 11:08:04;;;;;;;2.92;1.60;;;15.50;82.90;;;;;;5031473;28;20041;-65
2021/05/24 11:10:32;;;;;;;3.20;1.60;;;15.40;81.20;;;;;;5032779;28;20044;-65
2021/05/24 11:13:10;;;;;;;2.90;1.67;;;15.50;82.10;;;;;;5051112;28;20059;-66
2021/05/24 11:15:45;;;;;;;2.65;1.45;;;15.60;80.40;;;;;;5032899;28;20045;-64
2021/05/24 11:18:12;;;;;;;2.17;1.73;;;15.70;78.80;;;;;;5049343;28;20041;-64
2021/05/24 11:20:48;;;;;;;3.13;1.50;;;15.90;77.40;;;;;;5050803;28;20394;-64
2021/05/24 11:23:33;;;;;;;1.58;1.40;;;16.00;78.20;;;;;;5047444;28;20451;-64
2021/05/24 11:26:53;;;;;;;2.95;1.50;;;16.10;77.80;;;;;;5030636;28;20045;-64
2021/05/24 11:29:18;;;;;;;3.45;1.67;;;16.20;74.50;;;;;;5043166;28;20075;-64
2021/05/24 11:31:52;;;;;;;2.55;1.40;;;16.30;74.30;;;;;;5049881;28;20037;-65
2021/05/24 11:34:27;;;;;;;2.13;1.30;;;16.30;78.20;;;;;;5049692;28;20036;-64
2021/05/24 11:37:04;;;;;;;3.38;1.38;;;16.30;78.20;;;;;;5048094;28;20038;-65
2021/05/24 11:39:47;;;;;;;4.47;1.70;;;16.40;76.30;;;;;;5032074;28;20134;-64
2021/05/24 11:42:27;;;;;;;3.83;1.35;;;16.40;74.90;;;;;;5044738;28;20072;-64
2021/05/24 11:44:56;;;;;;;2.75;1.63;;;16.40;76.40;;;;;;5039992;28;20040;-64
2021/05/24 11:47:24;;;;;;;4.65;1.80;;;16.40;76.80;;;;;;5049957;28;20040;-64
2021/05/24 11:49:53;;;;;;;3.58;1.60;;;16.40;78.90;;;;;;5027932;28;20053;-64
2021/05/24 11:52:21;;;;;;;3.50;1.50;;;16.40;76.60;;;;;;5042495;28;20029;-64
2021/05/24 11:54:49;;;;;;;2.47;1.70;;;16.40;77.10;;;;;;5049501;28;20033;-64
2021/05/24 11:57:16;;;;;;;2.10;1.40;;;16.40;76.50;;;;;;5049294;28;20037;-64
2021/05/24 11:59:42;;;;;;;5.18;1.80;;;16.30;78.60;;;;;;5046425;28;20116;-65
2021/05/24 12:02:08;;;;;;;2.97;1.70;;;16.30;78.00;;;;;;5048903;28;20490;-65
2021/05/24 12:04:37;;;;;;;3.55;2.22;;;16.30;78.00;;;;;;5047608;28;20069;-65
2021/05/24 12:07:05;;;;;;;3.10;1.90;;;16.20;77.50;;;;;;5041987;28;20032;-65
2021/05/24 12:09:32;;;;;;;2.58;1.77;;;16.20;80.20;;;;;;5046286;28;20029;-65
2021/05/24 12:11:58;;;;;;;3.22;1.80;;;16.10;78.80;;;;;;5049086;28;20398;-65
2021/05/24 12:14:24;;;;;;;4.65;1.65;;;16.10;82.90;;;;;;5047607;28;20041;-65
2021/05/24 12:16:52;;;;;;;3.95;1.90;;;16.00;80.70;;;;;;5049801;28;20041;-65
2021/05/24 12:19:20;;;;;;;4.05;2.10;;;16.10;79.10;;;;;;5050348;28;20041;-65
2021/05/24 12:21:47;;;;;;;2.38;1.80;;;16.00;79.10;;;;;;5032567;28;20040;-65
2021/05/24 12:24:13;;;;;;;2.83;1.95;;;16.00;81.60;;;;;;5030715;28;20044;-65
2021/05/24 12:26:51;;;;;;;3.05;2.17;;;16.00;81.50;;;;;;5049876;28;20037;-65
2021/05/24 12:29:23;;;;;;;2.10;1.88;;;16.00;81.40;;;;;;5017081;28;20033;-65
2021/05/24 12:31:51;;;;;;;3.55;1.73;;;15.90;81.60;;;;;;5034889;28;20044;-65
2021/05/24 12:34:22;;;;;;;3.40;1.88;;;15.90;80.40;;;;;;5044521;28;20033;-65
2021/05/24 12:36:54;;;;;;;3.60;2.00;;;15.80;80.10;;;;;;5048516;28;20063;-65
2021/05/24 12:39:22;;;;;;;2.17;1.52;;;15.60;80.80;;;;;;5047382;28;20107;-66
2021/05/24 12:41:50;;;;;;;1.95;1.52;;;15.50;79.80;;;;;;5049287;28;20044;-66
2021/05/24 12:44:22;;;;;;;3.17;2.13;;;15.40;82.30;;;;;;5050812;28;20041;-66
2021/05/24 12:46:49;;;;;;;4.18;2.30;;;15.30;83.30;;;;;;5051030;28;20036;-65
2021/05/24 12:49:15;;;;;;;13.38;9.05;;;15.30;81.30;;;;;;5051452;28;20734;-65
2021/05/24 12:51:42;;;;;;;7.65;5.80;;;15.20;82.10;;;;;;5033841;28;20033;-64